Urb Montesol, Puerto Rico
Current Conditions -  °F | °C
As of 3:50 PM on Thursday 25 Dec 2014 (Local Time) from TJBQ Reporting Station
Scattered Clouds Scattered Clouds  
Wind Chill: 81°   Ceiling: Unl
Heat Index: 84°   Visibility: 10mi
Dew Point: 70°   Wind: 18mph
Humidity: 70%   Direction: 70°ENE
Pressure: 30.05"   Gusts: 24mph
Location:  18.0849°N, 67.1633°W
Report Text: TJBQ 251950Z 07016G21KT 10SM SCT024 27/21 A3005 RMK RWY08 ATIS Y
Loading
Personal Weather Stations






























Interactive Weather Map New forecast layout! Learn more

10-Day Weather Forecast

Advertisements
Track Severe Weather on mobile